Time;durP1;ratioP1;P1;durP2;ratioP2;P2;SDS_P1;SDS_P2;PMS_P1;PMS_P2;Temp;Humidity;BMP_temperature;BMP_pressure;BME280_temperature;BME280_humidity;BME280_pressure;Samples;Min_cycle;Max_cycle;Signal;HPM_P1;HPM_P2
2023/09/08 00:01:33;;;;;;;;;;;20.20;99.90;;;;;;5081702;28;20044;-70
2023/09/08 00:04:04;;;;;;;8.93;5.13;;;20.10;99.90;;;;;;5061649;28;19926;-70
2023/09/08 00:06:30;;;;;;;8.70;5.65;;;20.10;99.90;;;;;;5061097;28;20458;-69
2023/09/08 00:08:55;;;;;;;;;;;20.10;99.90;;;;;;5058796;28;20120;-69
2023/09/08 00:11:21;;;;;;;8.85;5.40;;;20.10;99.90;;;;;;5062638;28;20279;-69
2023/09/08 00:13:47;;;;;;;8.60;5.28;;;20.00;99.90;;;;;;5079346;28;20521;-69
2023/09/08 00:16:12;;;;;;;7.53;5.45;;;20.00;99.90;;;;;;5052696;28;20052;-69
2023/09/08 00:18:41;;;;;;;10.25;5.53;;;20.00;99.90;;;;;;5056024;28;20044;-70
2023/09/08 00:21:06;;;;;;;9.43;5.60;;;20.00;99.90;;;;;;5058184;28;20088;-69
2023/09/08 00:23:32;;;;;;;9.82;5.85;;;20.00;99.90;;;;;;5056376;28;20544;-70
2023/09/08 00:25:58;;;;;;;7.05;5.28;;;19.90;99.90;;;;;;5054098;28;20247;-70
2023/09/08 00:28:24;;;;;;;9.25;5.15;;;19.90;99.90;;;;;;5079095;28;20104;-70
2023/09/08 00:30:50;;;;;;;7.93;5.65;;;19.90;99.90;;;;;;5057249;28;20444;-70
2023/09/08 00:33:15;;;;;;;6.93;5.43;;;19.90;99.90;;;;;;5055819;28;20124;-70
2023/09/08 00:35:45;;;;;;;8.63;5.38;;;19.80;99.90;;;;;;5059906;28;20116;-70
2023/09/08 00:38:13;;;;;;;10.93;5.88;;;19.80;99.90;;;;;;5079109;28;20117;-70
2023/09/08 00:40:42;;;;;;;8.32;5.85;;;19.70;99.90;;;;;;5077451;28;20044;-70
2023/09/08 00:43:17;;;;;;;9.60;5.80;;;19.70;99.90;;;;;;5058251;28;20048;-70
2023/09/08 00:45:45;;;;;;;11.68;5.93;;;19.70;99.90;;;;;;5058946;28;20044;-70
2023/09/08 00:48:11;;;;;;;7.70;5.63;;;19.70;99.90;;;;;;5062512;28;20040;-70
2023/09/08 00:50:37;;;;;;;8.27;5.82;;;19.60;99.90;;;;;;5059035;28;20501;-69
2023/09/08 00:53:05;;;;;;;8.57;5.60;;;19.70;99.90;;;;;;5084721;28;20207;-70
2023/09/08 00:55:31;;;;;;;7.90;5.70;;;19.60;99.90;;;;;;5062465;28;20128;-70
2023/09/08 00:57:58;;;;;;;11.60;6.18;;;19.60;99.90;;;;;;5063283;28;20055;-70
2023/09/08 01:00:24;;;;;;;7.97;5.55;;;19.60;99.90;;;;;;5066924;28;20784;-70
2023/09/08 01:02:50;;;;;;;8.15;5.93;;;19.60;99.90;;;;;;5046823;28;20044;-69
2023/09/08 01:05:16;;;;;;;10.23;6.00;;;19.50;99.90;;;;;;5063770;28;20048;-70
2023/09/08 01:07:42;;;;;;;;;;;19.50;99.90;;;;;;5062490;28;20290;-69
2023/09/08 01:10:09;;;;;;;9.48;5.82;;;19.50;99.90;;;;;;5061203;28;19924;-69
2023/09/08 01:12:35;;;;;;;9.07;5.85;;;19.40;99.90;;;;;;5078880;28;20090;-69
2023/09/08 01:15:06;;;;;;;7.75;5.35;;;19.40;99.90;;;;;;5081524;28;20072;-69
2023/09/08 01:17:32;;;;;;;9.95;6.03;;;19.40;99.90;;;;;;5061419;28;20672;-69
2023/09/08 01:20:01;;;;;;;;;;;19.40;99.90;;;;;;5080216;28;20036;-70
2023/09/08 01:23:24;;;;;;;8.85;5.60;;;19.40;99.90;;;;;;5073283;28;20003;-70
2023/09/08 01:26:08;;;;;;;9.90;5.97;;;19.30;99.90;;;;;;4950484;28;20121;-69
2023/09/08 01:36:41;;;;;;;12.88;5.90;;;19.20;99.90;;;;;;5012957;28;20694;-84
2023/09/08 01:55:16;;;;;;;9.02;6.10;;;19.10;99.90;;;;;;4905765;28;20053;-84
2023/09/08 02:00:53;;;;;;;10.55;6.53;;;18.90;99.90;;;;;;5091632;22;20366;-68
2023/09/08 02:03:19;;;;;;;9.45;6.28;;;18.90;99.90;;;;;;5072138;28;20283;-68
2023/09/08 02:05:45;;;;;;;9.13;6.20;;;18.90;99.90;;;;;;5086093;28;20139;-68
2023/09/08 02:08:11;;;;;;;;;;;18.80;99.90;;;;;;5075417;28;20071;-68
2023/09/08 02:10:40;;;;;;;13.32;5.68;;;18.90;99.90;;;;;;5044986;28;20629;-68
2023/09/08 02:13:06;;;;;;;10.15;6.50;;;18.80;99.90;;;;;;5049355;28;20131;-69
2023/09/08 02:15:35;;;;;;;9.27;6.70;;;18.80;99.90;;;;;;5042545;28;20164;-68
2023/09/08 02:18:00;;;;;;;8.77;6.13;;;18.70;99.90;;;;;;5047347;28;20501;-68
2023/09/08 02:20:26;;;;;;;9.07;5.75;;;18.70;99.90;;;;;;5050079;28;20074;-68
2023/09/08 02:22:54;;;;;;;9.60;6.07;;;18.70;99.90;;;;;;5043357;28;20089;-68
2023/09/08 02:25:20;;;;;;;9.55;6.13;;;18.70;99.90;;;;;;5070111;28;20120;-68
2023/09/08 02:27:46;;;;;;;7.95;5.97;;;18.70;99.90;;;;;;5064263;28;20099;-68
2023/09/08 02:30:11;;;;;;;9.18;6.38;;;18.60;99.90;;;;;;5051750;28;20413;-68
2023/09/08 02:32:37;;;;;;;7.10;5.47;;;18.60;99.90;;;;;;5071717;28;20054;-68
2023/09/08 02:35:03;;;;;;;9.55;5.85;;;18.60;99.90;;;;;;5073051;28;20165;-68
2023/09/08 02:37:29;;;;;;;11.45;6.38;;;18.50;99.90;;;;;;5062658;28;20524;-68
2023/09/08 02:39:54;;;;;;;8.43;5.75;;;18.50;99.90;;;;;;5054104;28;20498;-68
2023/09/08 02:42:20;;;;;;;9.32;6.03;;;18.50;99.90;;;;;;5055123;28;20136;-68
2023/09/08 02:44:46;;;;;;;8.90;6.55;;;18.40;99.90;;;;;;5048681;28;20127;-69
2023/09/08 02:47:11;;;;;;;9.75;6.55;;;18.40;99.90;;;;;;5048957;28;20036;-69
2023/09/08 02:49:37;;;;;;;10.32;6.20;;;18.40;99.90;;;;;;5046922;28;20051;-69
2023/09/08 02:52:04;;;;;;;8.10;5.72;;;18.30;99.90;;;;;;5050641;28;20040;-69
2023/09/08 02:54:29;;;;;;;8.20;5.80;;;18.30;99.90;;;;;;5066956;28;20174;-68
2023/09/08 02:56:55;;;;;;;9.52;6.22;;;18.30;99.90;;;;;;5046404;28;20053;-69
2023/09/08 02:59:21;;;;;;;11.73;6.70;;;18.20;99.90;;;;;;5074712;28;20078;-68
2023/09/08 03:01:46;;;;;;;10.55;6.40;;;18.20;99.90;;;;;;5048827;28;20037;-68
2023/09/08 03:04:12;;;;;;;9.23;6.55;;;18.20;99.90;;;;;;5048488;28;20045;-68
2023/09/08 03:06:40;;;;;;;11.23;6.40;;;18.20;99.90;;;;;;5053695;28;20040;-68
2023/09/08 03:09:06;;;;;;;11.80;6.90;;;18.20;99.90;;;;;;5050069;28;20053;-68
2023/09/08 03:11:31;;;;;;;9.10;6.10;;;18.20;99.90;;;;;;5035878;28;20103;-69
2023/09/08 03:13:57;;;;;;;8.75;6.43;;;18.10;99.90;;;;;;5044338;28;20051;-70
2023/09/08 03:16:23;;;;;;;9.93;6.53;;;18.20;99.90;;;;;;5065890;28;20036;-72
2023/09/08 03:18:48;;;;;;;9.20;6.47;;;18.10;99.90;;;;;;5076880;28;20208;-69
2023/09/08 03:21:14;;;;;;;10.30;6.50;;;18.10;99.90;;;;;;5070057;28;20127;-69
2023/09/08 03:23:42;;;;;;;10.50;7.05;;;18.10;99.90;;;;;;5070652;28;20036;-69
2023/09/08 03:26:09;;;;;;;10.65;7.07;;;18.10;99.90;;;;;;5057004;28;20044;-69
2023/09/08 03:28:36;;;;;;;15.40;7.00;;;18.10;99.90;;;;;;5052111;28;20055;-69
2023/09/08 03:31:03;;;;;;;10.00;6.80;;;18.10;99.90;;;;;;5046345;28;20097;-69
2023/09/08 03:33:28;;;;;;;9.85;6.90;;;18.00;99.90;;;;;;5053954;28;20062;-69
2023/09/08 03:35:55;;;;;;;10.25;7.28;;;18.10;99.90;;;;;;5067477;28;20450;-69
2023/09/08 03:38:21;;;;;;;10.85;6.28;;;18.00;99.90;;;;;;5052251;28;20088;-69
2023/09/08 03:40:47;;;;;;;11.55;6.90;;;18.00;99.90;;;;;;5052239;28;20424;-69
2023/09/08 03:43:13;;;;;;;10.70;6.75;;;18.00;99.90;;;;;;5058799;28;20032;-69
2023/09/08 03:45:38;;;;;;;10.07;6.78;;;18.00;99.90;;;;;;5057692;28;20044;-69
2023/09/08 03:48:04;;;;;;;11.02;7.05;;;18.00;99.90;;;;;;5075206;28;20055;-69
2023/09/08 03:50:30;;;;;;;10.40;6.85;;;18.00;99.90;;;;;;5061593;28;20056;-69
2023/09/08 03:52:56;;;;;;;9.52;6.68;;;17.90;99.90;;;;;;5085723;28;20044;-69
2023/09/08 03:55:22;;;;;;;12.35;6.70;;;18.00;99.90;;;;;;5068290;28;20633;-68
2023/09/08 03:57:47;;;;;;;10.90;6.75;;;17.90;99.90;;;;;;5055449;28;20040;-69
2023/09/08 04:00:22;;;;;;;12.98;7.32;;;17.90;99.90;;;;;;5057316;28;20068;-69
2023/09/08 04:02:51;;;;;;;9.88;7.15;;;17.90;99.90;;;;;;5071485;28;20508;-69
2023/09/08 04:05:17;;;;;;;10.02;7.03;;;17.90;99.90;;;;;;5040926;28;20118;-69
2023/09/08 04:07:45;;;;;;;11.40;6.60;;;17.80;99.90;;;;;;5060299;28;20037;-69
2023/09/08 04:10:10;;;;;;;9.45;6.65;;;17.80;99.90;;;;;;5059014;28;20047;-69
2023/09/08 04:12:38;;;;;;;9.98;6.82;;;17.80;99.90;;;;;;5062968;28;20536;-69
2023/09/08 04:15:04;;;;;;;11.27;6.53;;;17.80;99.90;;;;;;5046440;28;20045;-69
2023/09/08 04:17:30;;;;;;;11.30;6.95;;;17.80;99.90;;;;;;5075567;28;20063;-69
2023/09/08 04:19:55;;;;;;;10.77;6.80;;;17.80;99.90;;;;;;5064105;28;20327;-69
2023/09/08 04:22:21;;;;;;;10.82;7.13;;;17.80;99.90;;;;;;5058139;28;20042;-69
2023/09/08 04:24:46;;;;;;;10.38;6.55;;;17.80;99.90;;;;;;5076857;28;20138;-69
2023/09/08 04:27:12;;;;;;;10.65;7.03;;;17.80;99.90;;;;;;5060902;28;20043;-69
2023/09/08 04:29:38;;;;;;;13.68;7.07;;;17.80;99.90;;;;;;5057311;28;20091;-69
2023/09/08 04:32:08;;;;;;;10.77;6.82;;;17.80;99.90;;;;;;5050953;28;20107;-70
2023/09/08 04:34:43;;;;;;;10.07;7.18;;;17.80;99.90;;;;;;5037526;28;20044;-70
2023/09/08 04:37:09;;;;;;;10.30;6.47;;;17.80;99.90;;;;;;5065860;28;20044;-68
2023/09/08 04:39:36;;;;;;;10.57;7.25;;;17.70;99.90;;;;;;5067015;28;20040;-68
2023/09/08 04:42:03;;;;;;;15.25;7.55;;;17.70;99.90;;;;;;5051397;28;20385;-68
2023/09/08 04:44:28;;;;;;;9.93;6.97;;;17.70;99.90;;;;;;5050942;28;20124;-68
2023/09/08 04:46:55;;;;;;;11.98;7.53;;;17.70;99.90;;;;;;5052643;28;20132;-68
2023/09/08 04:49:21;;;;;;;10.93;6.70;;;17.70;99.90;;;;;;5053246;28;20072;-68
2023/09/08 04:51:46;;;;;;;12.35;7.38;;;17.70;99.90;;;;;;5066800;28;20443;-68
2023/09/08 04:54:12;;;;;;;10.43;7.47;;;17.70;99.90;;;;;;5046375;28;20049;-69
2023/09/08 04:56:41;;;;;;;13.60;7.50;;;17.70;99.90;;;;;;5027480;28;20193;-68
2023/09/08 04:59:07;;;;;;;10.90;7.40;;;17.60;99.90;;;;;;5053813;28;20053;-68
2023/09/08 05:01:33;;;;;;;13.00;7.03;;;17.60;99.90;;;;;;5066693;28;20135;-69
2023/09/08 05:04:02;;;;;;;11.35;7.75;;;17.60;99.90;;;;;;5069463;28;20063;-68
2023/09/08 05:06:27;;;;;;;11.13;7.18;;;17.60;99.90;;;;;;5074059;28;20036;-69
2023/09/08 05:08:53;;;;;;;11.65;8.55;;;17.60;99.90;;;;;;5052553;28;20040;-70
2023/09/08 05:11:19;;;;;;;14.43;8.50;;;17.60;99.90;;;;;;5083283;28;20101;-70
2023/09/08 05:13:46;;;;;;;11.02;7.82;;;17.60;99.90;;;;;;5056608;28;20040;-70
2023/09/08 05:16:12;;;;;;;12.02;7.38;;;17.50;99.90;;;;;;5054956;28;20154;-70
2023/09/08 05:18:38;;;;;;;;;;;17.50;99.90;;;;;;5052021;28;20497;-69
2023/09/08 05:21:04;;;;;;;11.20;7.40;;;17.50;99.90;;;;;;5041922;28;19923;-70
2023/09/08 05:23:30;;;;;;;12.68;7.03;;;17.50;99.90;;;;;;5073262;28;20036;-70
2023/09/08 05:25:56;;;;;;;10.77;7.43;;;17.50;99.90;;;;;;5074647;28;20530;-71
2023/09/08 05:28:21;;;;;;;10.55;7.53;;;17.50;99.90;;;;;;5082757;28;20036;-70
2023/09/08 05:30:47;;;;;;;10.23;7.35;;;17.60;99.90;;;;;;5044675;28;20059;-70
2023/09/08 05:33:13;;;;;;;11.32;7.43;;;17.60;99.90;;;;;;5059479;28;20089;-70
2023/09/08 05:35:39;;;;;;;10.50;7.32;;;17.60;99.90;;;;;;5049120;28;20083;-70
2023/09/08 05:38:05;;;;;;;10.73;7.20;;;17.60;99.90;;;;;;5056845;28;20071;-70
2023/09/08 05:40:30;;;;;;;10.38;7.15;;;17.60;99.90;;;;;;5071932;28;20452;-70
2023/09/08 05:42:56;;;;;;;12.45;7.90;;;17.60;99.90;;;;;;5063067;28;20044;-77
2023/09/08 05:45:22;;;;;;;13.50;7.78;;;17.60;99.90;;;;;;5062190;28;20040;-71
2023/09/08 05:47:49;;;;;;;9.75;7.15;;;17.60;99.90;;;;;;5057571;28;20036;-71
2023/09/08 05:50:15;;;;;;;14.75;8.02;;;17.60;99.90;;;;;;5069362;28;20044;-70
2023/09/08 05:52:40;;;;;;;11.00;7.60;;;17.70;99.90;;;;;;5058801;28;20043;-73
2023/09/08 05:55:06;;;;;;;10.48;7.75;;;17.70;99.90;;;;;;5067736;28;20036;-72
2023/09/08 05:57:32;;;;;;;13.43;7.70;;;17.70;99.90;;;;;;5068540;28;20061;-72
2023/09/08 05:59:57;;;;;;;10.02;7.13;;;17.70;99.90;;;;;;5057998;28;20033;-73
2023/09/08 06:02:23;;;;;;;11.18;7.30;;;17.80;99.90;;;;;;5057224;28;20039;-72
2023/09/08 06:04:49;;;;;;;16.50;8.02;;;17.80;99.90;;;;;;5050773;28;20509;-71
2023/09/08 06:07:14;;;;;;;10.05;7.03;;;17.80;99.90;;;;;;5078889;28;20482;-71
2023/09/08 06:09:40;;;;;;;12.57;8.45;;;17.80;99.90;;;;;;5062227;28;20095;-73
2023/09/08 06:12:06;;;;;;;12.68;7.80;;;17.90;99.90;;;;;;5058700;28;20079;-75
2023/09/08 06:14:32;;;;;;;11.73;7.60;;;17.90;99.90;;;;;;5051352;28;20363;-71
2023/09/08 06:17:00;;;;;;;11.35;7.95;;;17.90;99.90;;;;;;5071657;28;20032;-70
2023/09/08 06:19:26;;;;;;;9.75;6.78;;;18.00;99.90;;;;;;5059034;28;20672;-69
2023/09/08 06:21:52;;;;;;;11.52;7.30;;;18.00;99.90;;;;;;5066622;28;20074;-69
2023/09/08 06:24:17;;;;;;;12.27;7.47;;;18.00;99.90;;;;;;5047998;28;20047;-69
2023/09/08 06:26:46;;;;;;;12.18;7.97;;;18.10;99.90;;;;;;5053435;28;20097;-69
2023/09/08 06:29:11;;;;;;;11.02;7.63;;;18.10;99.90;;;;;;5053800;28;20464;-70
2023/09/08 06:31:37;;;;;;;14.23;7.43;;;18.20;99.90;;;;;;5045365;28;20090;-70
2023/09/08 06:34:03;;;;;;;12.32;7.57;;;18.20;99.90;;;;;;5074651;28;20053;-70
2023/09/08 06:36:28;;;;;;;11.52;7.15;;;18.30;99.90;;;;;;5051804;28;20039;-70
2023/09/08 06:38:54;;;;;;;9.73;7.32;;;18.30;99.90;;;;;;5053365;28;20280;-70
2023/09/08 06:41:20;;;;;;;13.68;7.47;;;18.40;99.90;;;;;;5074534;28;20051;-70
2023/09/08 06:43:45;;;;;;;10.20;7.22;;;18.40;99.90;;;;;;5074246;28;20048;-70
2023/09/08 06:46:11;;;;;;;11.23;7.25;;;18.50;99.90;;;;;;5058459;28;20429;-70
2023/09/08 06:48:37;;;;;;;14.60;8.00;;;18.60;99.90;;;;;;5068036;28;20145;-70
2023/09/08 06:51:02;;;;;;;11.20;7.00;;;18.60;99.90;;;;;;5081920;28;20035;-70
2023/09/08 06:53:30;;;;;;;9.43;6.80;;;18.70;99.90;;;;;;5056738;28;20154;-70
2023/09/08 06:55:56;;;;;;;11.50;6.93;;;18.70;99.90;;;;;;5073361;28;20040;-70
2023/09/08 06:58:22;;;;;;;13.98;7.50;;;18.80;99.90;;;;;;5065922;28;20039;-70
2023/09/08 07:00:49;;;;;;;12.35;8.05;;;18.80;99.90;;;;;;5061996;28;20062;-70
2023/09/08 07:03:15;;;;;;;11.05;7.38;;;18.90;99.90;;;;;;5054077;28;20112;-70
2023/09/08 07:05:41;;;;;;;11.85;7.55;;;19.00;99.90;;;;;;5069038;28;20070;-70
2023/09/08 07:08:06;;;;;;;12.85;7.50;;;19.00;99.90;;;;;;5058971;28;20041;-70
2023/09/08 07:10:32;;;;;;;10.27;6.72;;;19.10;99.90;;;;;;5077677;28;20071;-70
2023/09/08 07:12:58;;;;;;;11.77;7.65;;;19.20;99.90;;;;;;5057892;28;20048;-70
2023/09/08 07:15:24;;;;;;;11.63;7.28;;;19.30;99.90;;;;;;5074496;28;20172;-70
2023/09/08 07:17:49;;;;;;;9.50;6.80;;;19.30;99.90;;;;;;5050236;28;20072;-70
2023/09/08 07:20:15;;;;;;;10.15;7.28;;;19.40;99.90;;;;;;5060387;28;20470;-70
2023/09/08 07:22:41;;;;;;;10.55;6.90;;;19.50;99.90;;;;;;5073215;28;20040;-70
2023/09/08 07:25:07;;;;;;;10.02;6.93;;;19.60;99.90;;;;;;5077810;28;20037;-70
2023/09/08 07:27:33;;;;;;;8.98;6.80;;;19.70;99.90;;;;;;5063206;28;20046;-70
2023/09/08 07:29:59;;;;;;;8.68;6.60;;;19.80;99.90;;;;;;5057482;22;20091;-69
2023/09/08 07:32:25;;;;;;;10.15;6.57;;;19.80;99.90;;;;;;5057955;28;20064;-69
2023/09/08 07:34:54;;;;;;;9.15;6.57;;;19.90;99.90;;;;;;5058688;28;20045;-69
2023/09/08 07:37:24;;;;;;;7.95;5.57;;;20.00;99.90;;;;;;5039156;28;20045;-69
2023/09/08 07:39:50;;;;;;;7.72;5.93;;;20.10;99.90;;;;;;5043422;28;20086;-70
2023/09/08 07:42:16;;;;;;;7.72;5.47;;;20.20;99.90;;;;;;5038818;28;20044;-70
2023/09/08 07:44:42;;;;;;;9.55;6.03;;;20.30;99.90;;;;;;5033355;28;20033;-69
2023/09/08 07:47:08;;;;;;;8.98;5.72;;;20.40;99.90;;;;;;5049740;28;20056;-69
2023/09/08 07:49:34;;;;;;;8.93;5.70;;;20.40;99.90;;;;;;5033230;28;20086;-69
2023/09/08 07:52:00;;;;;;;;;;;20.50;99.90;;;;;;5032147;28;20080;-69
2023/09/08 07:54:25;;;;;;;10.25;5.68;;;20.60;99.90;;;;;;5039076;28;19956;-69
2023/09/08 07:56:51;;;;;;;8.32;5.35;;;20.70;99.90;;;;;;5056323;28;20430;-69
2023/09/08 07:59:17;;;;;;;7.47;5.13;;;20.80;99.90;;;;;;5033166;28;20111;-69
2023/09/08 08:01:43;;;;;;;10.00;6.32;;;20.80;99.90;;;;;;5019453;28;20483;-69
2023/09/08 08:04:09;;;;;;;9.82;5.15;;;20.90;99.90;;;;;;5041338;28;20048;-69
2023/09/08 08:06:34;;;;;;;;;;;21.00;99.90;;;;;;5047155;28;20037;-70
2023/09/08 08:09:00;;;;;;;10.98;5.18;;;21.10;99.90;;;;;;5040324;28;20366;-69
2023/09/08 08:11:26;;;;;;;;;;;21.20;99.90;;;;;;5035514;28;20514;-69
2023/09/08 08:13:52;;;;;;;7.63;5.20;;;21.30;99.90;;;;;;5037343;28;19943;-69
2023/09/08 08:16:18;;;;;;;6.70;5.13;;;21.40;99.90;;;;;;5047203;28;20348;-69
2023/09/08 08:18:44;;;;;;;8.50;5.55;;;21.50;99.90;;;;;;5037923;28;20470;-69
2023/09/08 08:21:09;;;;;;;;;;;21.60;99.90;;;;;;5036180;28;20039;-69
2023/09/08 08:23:36;;;;;;;9.00;5.18;;;21.60;99.90;;;;;;5047683;28;19916;-69
2023/09/08 08:26:01;;;;;;;7.72;5.28;;;21.70;99.90;;;;;;5053683;28;22062;-69
2023/09/08 08:28:27;;;;;;;;;;;21.80;99.90;;;;;;5053557;28;20037;-69
2023/09/08 08:30:52;;;;;;;9.15;5.65;;;21.90;99.90;;;;;;5050518;28;19927;-69
2023/09/08 08:33:20;;;;;;;8.20;4.95;;;22.00;99.90;;;;;;5036013;28;20520;-69
2023/09/08 08:35:50;;;;;;;7.22;4.90;;;22.10;99.90;;;;;;5051699;28;20036;-69
2023/09/08 08:38:16;;;;;;;7.35;4.97;;;22.20;99.90;;;;;;5049625;28;20040;-70
2023/09/08 08:40:41;;;;;;;;;;;22.30;99.90;;;;;;5033711;28;20041;-70
2023/09/08 08:43:08;;;;;;;9.07;4.70;;;22.40;99.90;;;;;;5031926;28;19920;-69
2023/09/08 08:45:35;;;;;;;7.13;4.97;;;22.50;99.90;;;;;;5049041;28;20116;-69
2023/09/08 08:48:02;;;;;;;6.88;4.43;;;22.60;99.90;;;;;;5052604;28;20458;-69
2023/09/08 08:50:28;;;;;;;8.43;4.68;;;22.70;99.90;;;;;;5043278;28;20049;-69
2023/09/08 08:52:53;;;;;;;11.18;5.32;;;22.80;99.90;;;;;;5033217;28;20131;-70
2023/09/08 08:55:19;;;;;;;;;;;22.80;99.90;;;;;;5034733;28;20132;-69
2023/09/08 09:00:20;;;;;;;7.00;4.55;;;23.10;99.90;;;;;;5301279;22;20033;-70
2023/09/08 09:02:48;;;;;;;;;;;23.10;99.90;;;;;;5014327;28;20541;-70
2023/09/08 09:05:15;;;;;;;6.90;5.00;;;23.20;99.90;;;;;;5010549;28;20016;-70
2023/09/08 09:07:44;;;;;;;9.73;4.75;;;23.30;99.90;;;;;;5034383;28;20036;-70
2023/09/08 09:10:10;;;;;;;8.15;5.28;;;23.40;99.90;;;;;;5018772;28;20098;-70
2023/09/08 09:12:40;;;;;;;6.80;4.90;;;23.50;99.90;;;;;;5037138;28;20036;-70
2023/09/08 09:15:08;;;;;;;8.50;4.32;;;23.60;99.90;;;;;;5077985;22;20041;-69
2023/09/08 09:17:34;;;;;;;7.53;4.70;;;23.70;99.90;;;;;;5056244;28;20067;-68
2023/09/08 09:20:17;;;;;;;8.30;4.68;;;23.80;99.90;;;;;;5051136;28;20041;-69
2023/09/08 09:22:44;;;;;;;7.50;4.40;;;23.90;99.90;;;;;;5035031;28;20661;-69
2023/09/08 09:25:20;;;;;;;8.68;4.78;;;24.00;99.90;;;;;;5046580;28;20146;-69
2023/09/08 09:27:54;;;;;;;7.93;4.65;;;24.10;99.90;;;;;;5046472;28;20529;-69
2023/09/08 09:30:22;;;;;;;7.57;4.25;;;24.20;99.90;;;;;;5057784;28;20037;-69
2023/09/08 09:32:51;;;;;;;8.43;5.15;;;24.30;99.90;;;;;;5052452;28;20075;-69
2023/09/08 09:35:17;;;;;;;7.95;4.47;;;24.50;99.90;;;;;;5066767;28;20123;-68
2023/09/08 09:37:43;;;;;;;11.07;4.97;;;24.60;99.90;;;;;;5020806;28;20492;-69
2023/09/08 09:40:11;;;;;;;6.70;4.60;;;24.70;99.90;;;;;;5061477;28;20064;-69
2023/09/08 09:42:40;;;;;;;8.93;4.30;;;24.80;99.90;;;;;;5045763;28;20501;-69
2023/09/08 09:45:06;;;;;;;9.35;4.50;;;25.00;99.90;;;;;;5041340;28;20040;-69
2023/09/08 09:47:32;;;;;;;6.30;4.20;;;25.10;99.90;;;;;;5043169;28;20037;-68
2023/09/08 09:49:58;;;;;;;11.93;4.18;;;25.10;99.90;;;;;;5062490;28;20540;-69
2023/09/08 09:52:25;;;;;;;8.23;3.90;;;25.20;99.90;;;;;;5060128;28;20048;-69
2023/09/08 09:54:54;;;;;;;6.78;4.32;;;25.30;99.90;;;;;;5043258;28;20048;-69
2023/09/08 09:57:21;;;;;;;7.15;4.13;;;25.40;99.90;;;;;;5030465;28;20045;-69
2023/09/08 09:59:50;;;;;;;7.53;3.92;;;25.50;99.90;;;;;;5060660;28;20090;-69
2023/09/08 10:02:21;;;;;;;8.63;4.47;;;25.60;99.90;;;;;;5047817;28;20048;-69
2023/09/08 10:04:51;;;;;;;5.93;4.20;;;25.70;99.90;;;;;;5063457;28;20044;-69
2023/09/08 10:07:17;;;;;;;7.43;3.70;;;25.80;99.90;;;;;;5025881;28;20459;-69
2023/09/08 10:09:43;;;;;;;6.43;3.92;;;25.90;99.90;;;;;;5061801;28;20094;-69
2023/09/08 10:12:12;;;;;;;6.07;3.85;;;26.00;99.90;;;;;;5049312;28;20040;-69
2023/09/08 10:14:41;;;;;;;7.70;3.92;;;26.10;99.90;;;;;;5062912;28;20037;-69
2023/09/08 10:17:14;;;;;;;5.47;3.80;;;26.20;99.90;;;;;;5066587;28;20036;-69
2023/09/08 10:19:41;;;;;;;5.40;3.80;;;26.30;99.90;;;;;;5045101;28;20049;-69
2023/09/08 10:22:12;;;;;;;7.05;3.58;;;26.40;99.90;;;;;;5030515;28;20445;-69
2023/09/08 10:24:39;;;;;;;8.50;4.28;;;26.50;99.90;;;;;;5029586;28;20040;-69
2023/09/08 10:27:10;;;;;;;7.28;3.40;;;26.50;99.90;;;;;;5041589;28;20040;-69
2023/09/08 10:29:37;;;;;;;6.60;4.15;;;26.60;99.90;;;;;;5044025;28;20047;-69
2023/09/08 10:32:04;;;;;;;7.15;3.60;;;26.70;99.90;;;;;;5064225;28;20042;-69
2023/09/08 10:34:31;;;;;;;6.05;3.92;;;26.80;99.90;;;;;;5043022;28;20101;-69
2023/09/08 10:36:57;;;;;;;5.40;3.75;;;26.90;99.90;;;;;;5031282;28;20091;-69
2023/09/08 10:39:30;;;;;;;6.10;3.63;;;27.00;99.90;;;;;;5024442;28;20127;-69
2023/09/08 10:42:18;;;;;;;6.28;3.60;;;27.10;99.90;;;;;;5042055;28;20050;-69
2023/09/08 10:44:47;;;;;;;5.30;3.90;;;27.20;99.90;;;;;;5031893;28;20045;-69
2023/09/08 10:47:13;;;;;;;8.20;3.75;;;27.30;99.90;;;;;;5044687;28;20039;-69
2023/09/08 10:49:39;;;;;;;6.60;3.58;;;27.40;99.90;;;;;;5064880;28;20402;-69
2023/09/08 10:52:08;;;;;;;7.32;3.60;;;27.50;99.90;;;;;;5065171;28;20124;-69
2023/09/08 10:54:45;;;;;;;5.13;3.70;;;27.60;99.90;;;;;;5064361;28;20043;-69
2023/09/08 10:57:20;;;;;;;4.97;3.42;;;27.70;99.90;;;;;;5051307;28;20048;-69
2023/09/08 10:59:56;;;;;;;5.90;3.83;;;27.80;99.90;;;;;;5044879;28;20622;-69
2023/09/08 11:02:42;;;;;;;5.70;3.13;;;27.90;99.90;;;;;;5037999;28;20036;-69
2023/09/08 11:05:15;;;;;;;5.80;3.97;;;28.00;99.90;;;;;;5038654;28;20469;-69
2023/09/08 11:07:42;;;;;;;5.15;3.28;;;28.00;99.90;;;;;;5040015;28;20040;-69
2023/09/08 11:10:09;;;;;;;6.35;3.95;;;28.10;99.90;;;;;;5045842;28;20534;-69
2023/09/08 11:12:35;;;;;;;4.28;3.20;;;28.20;99.90;;;;;;5044906;28;20052;-69
2023/09/08 11:15:08;;;;;;;5.85;3.95;;;28.30;99.90;;;;;;5041917;28;20141;-69
2023/09/08 11:17:35;;;;;;;5.85;3.80;;;28.40;99.90;;;;;;5034346;28;20046;-69
2023/09/08 11:20:10;;;;;;;6.30;3.30;;;28.50;99.90;;;;;;5062060;28;20032;-69
2023/09/08 11:22:40;;;;;;;6.85;3.88;;;28.60;99.90;;;;;;5042838;28;20120;-69
2023/09/08 11:25:12;;;;;;;6.00;3.70;;;28.70;99.90;;;;;;5025080;28;20064;-69
2023/09/08 11:27:41;;;;;;;4.93;3.95;;;28.70;99.90;;;;;;5040140;28;20402;-69
2023/09/08 11:30:12;;;;;;;6.60;3.63;;;28.70;99.90;;;;;;5060218;28;20040;-69
2023/09/08 11:32:39;;;;;;;5.38;3.63;;;28.70;99.90;;;;;;5062906;28;20040;-69
2023/09/08 11:35:09;;;;;;;4.82;3.28;;;28.80;99.90;;;;;;5061907;28;20040;-69
2023/09/08 11:37:41;;;;;;;9.48;3.60;;;28.90;99.90;;;;;;5042376;28;20040;-69
2023/09/08 11:40:14;;;;;;;7.85;3.25;;;29.00;99.90;;;;;;5044328;28;20371;-69
2023/09/08 11:42:44;;;;;;;5.90;3.65;;;29.00;99.90;;;;;;5043941;28;20390;-69
2023/09/08 11:45:25;;;;;;;5.63;3.50;;;29.10;99.90;;;;;;5029605;28;20067;-69
2023/09/08 11:47:53;;;;;;;4.78;3.10;;;29.10;99.90;;;;;;5039591;28;20043;-69
2023/09/08 11:50:19;;;;;;;4.47;3.20;;;29.20;99.90;;;;;;5059808;28;20571;-69
2023/09/08 11:52:47;;;;;;;6.45;3.40;;;29.30;99.90;;;;;;5058042;28;20041;-69
2023/09/08 11:55:14;;;;;;;6.55;3.92;;;29.40;99.90;;;;;;5057908;28;20503;-69
2023/09/08 11:57:41;;;;;;;5.28;3.53;;;29.50;99.90;;;;;;5024011;28;20486;-69
2023/09/08 12:00:10;;;;;;;5.55;3.63;;;29.50;99.90;;;;;;5039072;28;20398;-69
2023/09/08 12:02:37;;;;;;;5.32;3.80;;;29.60;99.90;;;;;;5060163;28;20040;-69
2023/09/08 12:05:04;;;;;;;5.50;3.40;;;29.70;99.90;;;;;;5028720;28;20497;-69
2023/09/08 12:07:30;;;;;;;7.00;3.58;;;29.70;99.90;;;;;;5058017;28;20429;-69
2023/09/08 12:09:56;;;;;;;5.25;3.55;;;29.80;99.90;;;;;;5047935;28;20036;-69
2023/09/08 12:12:21;;;;;;;6.10;3.58;;;29.90;99.90;;;;;;5049030;28;20060;-69
2023/09/08 12:14:47;;;;;;;4.43;3.20;;;30.00;99.90;;;;;;5031564;28;20473;-69
2023/09/08 12:17:17;;;;;;;5.63;3.20;;;30.10;99.90;;;;;;5026227;28;22792;-69
2023/09/08 12:19:42;;;;;;;6.85;3.83;;;30.20;99.90;;;;;;5043796;28;20124;-69
2023/09/08 12:22:11;;;;;;;5.63;3.22;;;30.20;99.90;;;;;;5048943;28;20131;-69
2023/09/08 12:24:56;;;;;;;3.92;3.15;;;30.40;99.90;;;;;;5047095;28;20051;-69
2023/09/08 12:27:23;;;;;;;4.47;3.22;;;30.40;99.90;;;;;;5043935;28;20060;-69
2023/09/08 12:30:01;;;;;;;4.82;3.20;;;30.40;99.90;;;;;;5050222;28;20048;-69
2023/09/08 12:32:31;;;;;;;8.15;4.18;;;30.40;99.90;;;;;;5061585;28;20071;-69
2023/09/08 12:34:57;;;;;;;6.80;3.70;;;30.40;99.40;;;;;;5041907;28;20044;-69
2023/09/08 12:37:24;;;;;;;6.65;3.30;;;30.50;99.90;;;;;;5047311;28;20037;-69
2023/09/08 12:39:50;;;;;;;4.80;3.42;;;30.60;99.70;;;;;;5049395;28;20045;-69
2023/09/08 12:42:17;;;;;;;3.88;3.05;;;30.70;99.80;;;;;;5044764;28;20509;-69
2023/09/08 12:44:43;;;;;;;4.43;3.17;;;30.70;99.30;;;;;;5043697;28;20079;-69
2023/09/08 12:47:12;;;;;;;4.80;3.17;;;30.80;98.00;;;;;;5063649;28;20037;-69
2023/09/08 12:49:38;;;;;;;5.20;3.08;;;30.70;96.10;;;;;;5030061;28;20202;-69
2023/09/08 12:52:04;;;;;;;4.93;3.08;;;30.80;95.90;;;;;;5061066;28;20040;-69
2023/09/08 12:54:29;;;;;;;4.22;2.95;;;30.80;96.60;;;;;;5042890;28;20175;-69
2023/09/08 12:56:55;;;;;;;5.53;3.00;;;30.90;95.90;;;;;;5057266;28;20040;-69
2023/09/08 12:59:20;;;;;;;5.30;2.95;;;30.90;95.10;;;;;;5064915;28;20037;-69
2023/09/08 13:01:46;;;;;;;4.50;3.10;;;30.90;94.80;;;;;;5043519;28;20064;-69
2023/09/08 13:04:12;;;;;;;6.28;3.65;;;31.00;94.70;;;;;;5045886;28;20043;-69
2023/09/08 13:06:37;;;;;;;3.70;2.42;;;31.00;95.10;;;;;;5057607;28;20037;-69
2023/09/08 13:09:03;;;;;;;6.85;3.75;;;31.10;95.50;;;;;;5035928;28;20518;-69
2023/09/08 13:11:29;;;;;;;5.05;2.90;;;31.20;95.40;;;;;;5062359;28;20062;-69
2023/09/08 13:13:55;;;;;;;6.65;3.55;;;31.20;95.30;;;;;;5040196;28;20061;-69
2023/09/08 13:16:20;;;;;;;7.28;3.40;;;31.20;95.00;;;;;;5062273;28;20033;-69
2023/09/08 13:18:47;;;;;;;4.95;3.58;;;31.30;94.80;;;;;;5038154;28;20044;-70